sensor_id;sensor_type;location;lat;lon;timestamp;P1;durP1;ratioP1;P2;durP2;ratioP2
9370;SDS011;4725;48.384;8.984;2022-12-18T00:00:57;26.13;;;14.10;;
9370;SDS011;4725;48.384;8.984;2022-12-18T00:03:24;27.60;;;13.90;;
9370;SDS011;4725;48.384;8.984;2022-12-18T00:05:52;35.67;;;16.87;;
9370;SDS011;4725;48.384;8.984;2022-12-18T00:08:19;36.03;;;14.93;;
9370;SDS011;4725;48.384;8.984;2022-12-18T00:10:47;26.47;;;13.07;;
9370;SDS011;4725;48.384;8.984;2022-12-18T00:13:14;26.47;;;12.43;;
9370;SDS011;4725;48.384;8.984;2022-12-18T00:15:41;29.10;;;14.37;;
9370;SDS011;4725;48.384;8.984;2022-12-18T00:18:08;30.23;;;12.40;;
9370;SDS011;4725;48.384;8.984;2022-12-18T00:20:35;27.17;;;13.77;;
9370;SDS011;4725;48.384;8.984;2022-12-18T00:23:03;29.60;;;13.63;;
9370;SDS011;4725;48.384;8.984;2022-12-18T00:25:32;30.70;;;14.77;;
9370;SDS011;4725;48.384;8.984;2022-12-18T00:28:00;35.63;;;15.43;;
9370;SDS011;4725;48.384;8.984;2022-12-18T00:30:28;31.07;;;13.97;;
9370;SDS011;4725;48.384;8.984;2022-12-18T00:32:55;31.27;;;14.03;;
9370;SDS011;4725;48.384;8.984;2022-12-18T00:35:23;27.10;;;13.47;;
9370;SDS011;4725;48.384;8.984;2022-12-18T00:37:50;39.70;;;13.40;;
9370;SDS011;4725;48.384;8.984;2022-12-18T00:40:17;28.43;;;14.13;;
9370;SDS011;4725;48.384;8.984;2022-12-18T00:42:44;25.43;;;12.63;;
9370;SDS011;4725;48.384;8.984;2022-12-18T00:45:24;36.40;;;15.07;;
9370;SDS011;4725;48.384;8.984;2022-12-18T00:47:51;40.37;;;14.47;;
9370;SDS011;4725;48.384;8.984;2022-12-18T00:50:18;34.63;;;12.27;;
9370;SDS011;4725;48.384;8.984;2022-12-18T00:52:45;25.10;;;11.63;;
9370;SDS011;4725;48.384;8.984;2022-12-18T00:55:13;22.03;;;11.67;;
9370;SDS011;4725;48.384;8.984;2022-12-18T00:57:40;34.47;;;12.70;;
9370;SDS011;4725;48.384;8.984;2022-12-18T01:00:08;29.67;;;12.80;;
9370;SDS011;4725;48.384;8.984;2022-12-18T01:02:39;22.00;;;10.90;;
9370;SDS011;4725;48.384;8.984;2022-12-18T01:05:07;33.27;;;11.20;;
9370;SDS011;4725;48.384;8.984;2022-12-18T01:07:34;25.90;;;11.83;;
9370;SDS011;4725;48.384;8.984;2022-12-18T01:10:01;30.10;;;13.30;;
9370;SDS011;4725;48.384;8.984;2022-12-18T01:12:28;30.70;;;14.23;;
9370;SDS011;4725;48.384;8.984;2022-12-18T01:14:55;27.50;;;11.37;;
9370;SDS011;4725;48.384;8.984;2022-12-18T01:17:23;20.30;;;11.10;;
9370;SDS011;4725;48.384;8.984;2022-12-18T01:19:51;24.90;;;11.57;;
9370;SDS011;4725;48.384;8.984;2022-12-18T01:22:18;22.80;;;10.13;;
9370;SDS011;4725;48.384;8.984;2022-12-18T01:24:45;22.73;;;10.87;;
9370;SDS011;4725;48.384;8.984;2022-12-18T01:27:12;24.63;;;11.63;;
9370;SDS011;4725;48.384;8.984;2022-12-18T01:29:39;22.77;;;11.27;;
9370;SDS011;4725;48.384;8.984;2022-12-18T01:32:07;24.43;;;11.93;;
9370;SDS011;4725;48.384;8.984;2022-12-18T01:34:34;24.67;;;11.67;;
9370;SDS011;4725;48.384;8.984;2022-12-18T01:37:03;22.20;;;11.77;;
9370;SDS011;4725;48.384;8.984;2022-12-18T01:39:31;23.07;;;10.70;;
9370;SDS011;4725;48.384;8.984;2022-12-18T01:41:58;24.03;;;11.10;;
9370;SDS011;4725;48.384;8.984;2022-12-18T01:47:21;20.83;;;11.43;;
9370;SDS011;4725;48.384;8.984;2022-12-18T01:49:51;31.80;;;12.43;;
9370;SDS011;4725;48.384;8.984;2022-12-18T01:52:20;23.67;;;11.40;;
9370;SDS011;4725;48.384;8.984;2022-12-18T01:54:48;30.40;;;13.70;;
9370;SDS011;4725;48.384;8.984;2022-12-18T01:57:17;20.93;;;11.57;;
9370;SDS011;4725;48.384;8.984;2022-12-18T01:59:45;17.50;;;9.30;;
9370;SDS011;4725;48.384;8.984;2022-12-18T02:02:17;21.63;;;10.53;;
9370;SDS011;4725;48.384;8.984;2022-12-18T02:04:46;20.53;;;10.60;;
9370;SDS011;4725;48.384;8.984;2022-12-18T02:07:14;22.83;;;11.63;;
9370;SDS011;4725;48.384;8.984;2022-12-18T02:09:50;19.20;;;11.30;;
9370;SDS011;4725;48.384;8.984;2022-12-18T02:12:24;23.50;;;11.10;;
9370;SDS011;4725;48.384;8.984;2022-12-18T02:14:57;16.50;;;10.50;;
9370;SDS011;4725;48.384;8.984;2022-12-18T02:17:30;21.60;;;10.80;;
9370;SDS011;4725;48.384;8.984;2022-12-18T02:20:05;17.10;;;9.60;;
9370;SDS011;4725;48.384;8.984;2022-12-18T02:22:41;26.20;;;11.50;;
9370;SDS011;4725;48.384;8.984;2022-12-18T02:25:24;19.00;;;9.50;;
9370;SDS011;4725;48.384;8.984;2022-12-18T02:28:02;16.90;;;9.40;;
9370;SDS011;4725;48.384;8.984;2022-12-18T02:30:33;16.53;;;10.30;;
9370;SDS011;4725;48.384;8.984;2022-12-18T02:33:03;18.67;;;9.93;;
9370;SDS011;4725;48.384;8.984;2022-12-18T02:35:32;19.83;;;10.63;;
9370;SDS011;4725;48.384;8.984;2022-12-18T02:38:00;19.63;;;11.37;;
9370;SDS011;4725;48.384;8.984;2022-12-18T02:40:29;18.40;;;10.17;;
9370;SDS011;4725;48.384;8.984;2022-12-18T02:43:03;22.63;;;11.13;;
9370;SDS011;4725;48.384;8.984;2022-12-18T02:45:34;26.13;;;10.77;;
9370;SDS011;4725;48.384;8.984;2022-12-18T02:48:01;16.07;;;9.00;;
9370;SDS011;4725;48.384;8.984;2022-12-18T02:50:30;20.47;;;10.73;;
9370;SDS011;4725;48.384;8.984;2022-12-18T02:53:04;20.47;;;11.00;;
9370;SDS011;4725;48.384;8.984;2022-12-18T02:55:40;14.03;;;9.87;;
9370;SDS011;4725;48.384;8.984;2022-12-18T02:58:24;16.93;;;9.43;;
9370;SDS011;4725;48.384;8.984;2022-12-18T03:00:58;19.90;;;11.27;;
9370;SDS011;4725;48.384;8.984;2022-12-18T03:03:30;17.47;;;9.33;;
9370;SDS011;4725;48.384;8.984;2022-12-18T03:06:03;17.03;;;10.47;;
9370;SDS011;4725;48.384;8.984;2022-12-18T03:08:36;15.60;;;9.47;;
9370;SDS011;4725;48.384;8.984;2022-12-18T03:11:05;23.43;;;11.80;;
9370;SDS011;4725;48.384;8.984;2022-12-18T03:13:38;19.67;;;10.43;;
9370;SDS011;4725;48.384;8.984;2022-12-18T03:16:10;19.30;;;9.77;;
9370;SDS011;4725;48.384;8.984;2022-12-18T03:18:42;14.63;;;8.47;;
9370;SDS011;4725;48.384;8.984;2022-12-18T03:21:12;15.30;;;9.00;;
9370;SDS011;4725;48.384;8.984;2022-12-18T03:23:42;18.73;;;8.90;;
9370;SDS011;4725;48.384;8.984;2022-12-18T03:26:14;16.40;;;8.50;;
9370;SDS011;4725;48.384;8.984;2022-12-18T03:28:47;13.87;;;8.20;;
9370;SDS011;4725;48.384;8.984;2022-12-18T03:31:17;12.73;;;8.07;;
9370;SDS011;4725;48.384;8.984;2022-12-18T03:33:47;10.60;;;7.10;;
9370;SDS011;4725;48.384;8.984;2022-12-18T03:36:18;11.70;;;7.33;;
9370;SDS011;4725;48.384;8.984;2022-12-18T03:38:45;11.93;;;7.90;;
9370;SDS011;4725;48.384;8.984;2022-12-18T03:41:15;19.60;;;8.17;;
9370;SDS011;4725;48.384;8.984;2022-12-18T03:43:48;13.07;;;7.70;;
9370;SDS011;4725;48.384;8.984;2022-12-18T03:46:21;13.33;;;7.57;;
9370;SDS011;4725;48.384;8.984;2022-12-18T03:48:55;15.00;;;9.00;;
9370;SDS011;4725;48.384;8.984;2022-12-18T03:51:26;16.47;;;9.20;;
9370;SDS011;4725;48.384;8.984;2022-12-18T03:54:01;17.60;;;8.83;;
9370;SDS011;4725;48.384;8.984;2022-12-18T03:56:31;16.70;;;8.50;;
9370;SDS011;4725;48.384;8.984;2022-12-18T03:59:04;13.10;;;8.03;;
9370;SDS011;4725;48.384;8.984;2022-12-18T04:01:34;13.50;;;8.17;;
9370;SDS011;4725;48.384;8.984;2022-12-18T04:04:04;14.33;;;8.13;;
9370;SDS011;4725;48.384;8.984;2022-12-18T04:06:32;13.30;;;8.17;;
9370;SDS011;4725;48.384;8.984;2022-12-18T04:09:00;13.60;;;7.67;;
9370;SDS011;4725;48.384;8.984;2022-12-18T04:11:28;12.43;;;7.63;;
9370;SDS011;4725;48.384;8.984;2022-12-18T04:13:55;15.13;;;8.17;;
9370;SDS011;4725;48.384;8.984;2022-12-18T04:16:24;13.17;;;7.67;;
9370;SDS011;4725;48.384;8.984;2022-12-18T04:18:52;15.43;;;8.20;;
9370;SDS011;4725;48.384;8.984;2022-12-18T04:21:20;14.93;;;7.47;;
9370;SDS011;4725;48.384;8.984;2022-12-18T04:23:47;12.17;;;7.33;;
9370;SDS011;4725;48.384;8.984;2022-12-18T04:26:14;14.93;;;7.97;;
9370;SDS011;4725;48.384;8.984;2022-12-18T04:28:42;11.70;;;7.10;;
9370;SDS011;4725;48.384;8.984;2022-12-18T04:31:09;16.67;;;8.50;;
9370;SDS011;4725;48.384;8.984;2022-12-18T04:33:37;13.60;;;7.60;;
9370;SDS011;4725;48.384;8.984;2022-12-18T04:36:05;15.60;;;7.77;;
9370;SDS011;4725;48.384;8.984;2022-12-18T04:38:32;13.80;;;7.77;;
9370;SDS011;4725;48.384;8.984;2022-12-18T04:40:59;12.77;;;7.17;;
9370;SDS011;4725;48.384;8.984;2022-12-18T04:43:26;11.47;;;7.03;;
9370;SDS011;4725;48.384;8.984;2022-12-18T04:45:53;13.50;;;7.37;;
9370;SDS011;4725;48.384;8.984;2022-12-18T04:48:28;13.20;;;7.40;;
9370;SDS011;4725;48.384;8.984;2022-12-18T04:50:57;11.47;;;7.17;;
9370;SDS011;4725;48.384;8.984;2022-12-18T04:53:24;11.53;;;7.10;;
9370;SDS011;4725;48.384;8.984;2022-12-18T04:55:51;11.30;;;6.03;;
9370;SDS011;4725;48.384;8.984;2022-12-18T04:58:29;16.13;;;7.13;;
9370;SDS011;4725;48.384;8.984;2022-12-18T05:00:56;14.53;;;7.23;;
9370;SDS011;4725;48.384;8.984;2022-12-18T05:03:23;14.13;;;8.47;;
9370;SDS011;4725;48.384;8.984;2022-12-18T05:05:51;14.40;;;7.53;;
9370;SDS011;4725;48.384;8.984;2022-12-18T05:08:19;12.97;;;7.00;;
9370;SDS011;4725;48.384;8.984;2022-12-18T05:10:46;13.10;;;7.00;;
9370;SDS011;4725;48.384;8.984;2022-12-18T05:13:13;13.90;;;8.00;;
9370;SDS011;4725;48.384;8.984;2022-12-18T05:15:40;12.00;;;6.63;;
9370;SDS011;4725;48.384;8.984;2022-12-18T05:18:07;13.93;;;7.17;;
9370;SDS011;4725;48.384;8.984;2022-12-18T05:20:34;11.93;;;7.10;;
9370;SDS011;4725;48.384;8.984;2022-12-18T05:23:01;14.83;;;7.40;;
9370;SDS011;4725;48.384;8.984;2022-12-18T05:25:30;8.47;;;5.73;;
9370;SDS011;4725;48.384;8.984;2022-12-18T05:27:57;11.40;;;6.93;;
9370;SDS011;4725;48.384;8.984;2022-12-18T05:30:24;11.43;;;6.97;;
9370;SDS011;4725;48.384;8.984;2022-12-18T05:32:51;10.73;;;6.70;;
9370;SDS011;4725;48.384;8.984;2022-12-18T05:35:18;12.27;;;6.90;;
9370;SDS011;4725;48.384;8.984;2022-12-18T05:37:45;11.53;;;6.93;;
9370;SDS011;4725;48.384;8.984;2022-12-18T05:40:12;15.30;;;6.97;;
9370;SDS011;4725;48.384;8.984;2022-12-18T05:42:41;9.63;;;6.10;;
9370;SDS011;4725;48.384;8.984;2022-12-18T05:45:08;14.27;;;6.90;;
9370;SDS011;4725;48.384;8.984;2022-12-18T05:47:35;11.17;;;6.47;;
9370;SDS011;4725;48.384;8.984;2022-12-18T05:50:02;11.00;;;6.20;;
9370;SDS011;4725;48.384;8.984;2022-12-18T05:52:30;10.60;;;5.93;;
9370;SDS011;4725;48.384;8.984;2022-12-18T05:54:57;10.47;;;5.87;;
9370;SDS011;4725;48.384;8.984;2022-12-18T05:57:25;15.43;;;6.67;;
9370;SDS011;4725;48.384;8.984;2022-12-18T05:59:53;12.37;;;6.73;;
9370;SDS011;4725;48.384;8.984;2022-12-18T06:02:20;8.80;;;5.60;;
9370;SDS011;4725;48.384;8.984;2022-12-18T06:04:47;13.47;;;6.03;;
9370;SDS011;4725;48.384;8.984;2022-12-18T06:07:14;12.33;;;6.23;;
9370;SDS011;4725;48.384;8.984;2022-12-18T06:09:41;12.63;;;6.83;;
9370;SDS011;4725;48.384;8.984;2022-12-18T06:12:08;10.63;;;6.27;;
9370;SDS011;4725;48.384;8.984;2022-12-18T06:14:36;10.90;;;6.17;;
9370;SDS011;4725;48.384;8.984;2022-12-18T06:17:05;12.87;;;5.37;;
9370;SDS011;4725;48.384;8.984;2022-12-18T06:19:31;10.97;;;6.57;;
9370;SDS011;4725;48.384;8.984;2022-12-18T06:21:58;9.90;;;5.53;;
9370;SDS011;4725;48.384;8.984;2022-12-18T06:24:25;9.43;;;5.53;;
9370;SDS011;4725;48.384;8.984;2022-12-18T06:26:53;10.90;;;5.47;;
9370;SDS011;4725;48.384;8.984;2022-12-18T06:29:20;8.80;;;5.43;;
9370;SDS011;4725;48.384;8.984;2022-12-18T06:31:47;9.97;;;5.60;;
9370;SDS011;4725;48.384;8.984;2022-12-18T06:34:15;11.07;;;6.23;;
9370;SDS011;4725;48.384;8.984;2022-12-18T06:36:42;10.93;;;6.33;;
9370;SDS011;4725;48.384;8.984;2022-12-18T06:39:09;9.47;;;5.97;;
9370;SDS011;4725;48.384;8.984;2022-12-18T06:41:36;11.73;;;5.97;;
9370;SDS011;4725;48.384;8.984;2022-12-18T06:44:03;9.77;;;6.00;;
9370;SDS011;4725;48.384;8.984;2022-12-18T06:46:30;9.50;;;5.13;;
9370;SDS011;4725;48.384;8.984;2022-12-18T06:48:58;7.77;;;5.23;;
9370;SDS011;4725;48.384;8.984;2022-12-18T06:51:27;10.67;;;5.40;;
9370;SDS011;4725;48.384;8.984;2022-12-18T06:53:54;11.00;;;6.57;;
9370;SDS011;4725;48.384;8.984;2022-12-18T06:56:21;14.03;;;5.87;;
9370;SDS011;4725;48.384;8.984;2022-12-18T06:58:48;9.50;;;5.80;;
9370;SDS011;4725;48.384;8.984;2022-12-18T07:01:16;14.73;;;5.93;;
9370;SDS011;4725;48.384;8.984;2022-12-18T07:03:44;8.57;;;5.47;;
9370;SDS011;4725;48.384;8.984;2022-12-18T07:06:15;12.07;;;5.80;;
9370;SDS011;4725;48.384;8.984;2022-12-18T07:08:44;10.57;;;5.87;;
9370;SDS011;4725;48.384;8.984;2022-12-18T07:11:12;10.33;;;6.40;;
9370;SDS011;4725;48.384;8.984;2022-12-18T07:13:39;11.20;;;6.07;;
9370;SDS011;4725;48.384;8.984;2022-12-18T07:16:07;8.27;;;5.57;;
9370;SDS011;4725;48.384;8.984;2022-12-18T07:18:35;12.77;;;5.80;;
9370;SDS011;4725;48.384;8.984;2022-12-18T07:21:03;9.00;;;5.63;;
9370;SDS011;4725;48.384;8.984;2022-12-18T07:23:31;11.57;;;5.67;;
9370;SDS011;4725;48.384;8.984;2022-12-18T07:26:01;10.27;;;6.43;;
9370;SDS011;4725;48.384;8.984;2022-12-18T07:28:30;11.37;;;6.13;;
9370;SDS011;4725;48.384;8.984;2022-12-18T07:30:57;10.57;;;6.17;;
9370;SDS011;4725;48.384;8.984;2022-12-18T07:33:25;12.60;;;7.27;;
9370;SDS011;4725;48.384;8.984;2022-12-18T07:35:52;13.17;;;7.43;;
9370;SDS011;4725;48.384;8.984;2022-12-18T07:38:19;11.80;;;6.07;;
9370;SDS011;4725;48.384;8.984;2022-12-18T07:40:45;14.30;;;6.83;;
9370;SDS011;4725;48.384;8.984;2022-12-18T07:43:14;10.20;;;5.90;;
9370;SDS011;4725;48.384;8.984;2022-12-18T07:45:41;11.70;;;6.37;;
9370;SDS011;4725;48.384;8.984;2022-12-18T07:48:08;16.00;;;7.33;;
9370;SDS011;4725;48.384;8.984;2022-12-18T07:50:36;12.83;;;7.33;;
9370;SDS011;4725;48.384;8.984;2022-12-18T07:53:03;11.30;;;6.93;;
9370;SDS011;4725;48.384;8.984;2022-12-18T07:55:30;11.87;;;7.00;;
9370;SDS011;4725;48.384;8.984;2022-12-18T07:58:00;11.30;;;5.63;;
9370;SDS011;4725;48.384;8.984;2022-12-18T08:00:29;11.13;;;6.23;;
9370;SDS011;4725;48.384;8.984;2022-12-18T08:02:56;10.77;;;6.77;;
9370;SDS011;4725;48.384;8.984;2022-12-18T08:05:23;13.77;;;7.13;;
9370;SDS011;4725;48.384;8.984;2022-12-18T08:07:50;12.63;;;7.43;;
9370;SDS011;4725;48.384;8.984;2022-12-18T08:10:17;12.03;;;6.77;;
9370;SDS011;4725;48.384;8.984;2022-12-18T08:12:45;12.00;;;7.33;;
9370;SDS011;4725;48.384;8.984;2022-12-18T08:15:14;15.00;;;7.83;;
9370;SDS011;4725;48.384;8.984;2022-12-18T08:17:43;12.27;;;7.63;;
9370;SDS011;4725;48.384;8.984;2022-12-18T08:20:10;13.97;;;8.30;;
9370;SDS011;4725;48.384;8.984;2022-12-18T08:22:38;14.27;;;8.63;;
9370;SDS011;4725;48.384;8.984;2022-12-18T08:25:06;18.13;;;8.47;;
9370;SDS011;4725;48.384;8.984;2022-12-18T08:27:33;17.57;;;8.10;;
9370;SDS011;4725;48.384;8.984;2022-12-18T08:30:00;15.37;;;8.67;;
9370;SDS011;4725;48.384;8.984;2022-12-18T08:32:28;15.13;;;8.60;;
9370;SDS011;4725;48.384;8.984;2022-12-18T08:34:56;13.13;;;8.20;;
9370;SDS011;4725;48.384;8.984;2022-12-18T08:37:23;15.57;;;8.03;;
9370;SDS011;4725;48.384;8.984;2022-12-18T08:39:50;14.33;;;8.67;;
9370;SDS011;4725;48.384;8.984;2022-12-18T08:42:17;14.50;;;8.47;;
9370;SDS011;4725;48.384;8.984;2022-12-18T08:45:02;14.47;;;8.80;;
9370;SDS011;4725;48.384;8.984;2022-12-18T08:47:29;20.70;;;10.30;;
9370;SDS011;4725;48.384;8.984;2022-12-18T08:49:58;18.57;;;10.23;;
9370;SDS011;4725;48.384;8.984;2022-12-18T08:52:25;18.07;;;10.23;;
9370;SDS011;4725;48.384;8.984;2022-12-18T08:54:53;18.50;;;11.27;;
9370;SDS011;4725;48.384;8.984;2022-12-18T08:57:20;15.80;;;9.93;;
9370;SDS011;4725;48.384;8.984;2022-12-18T08:59:47;17.30;;;10.37;;
9370;SDS011;4725;48.384;8.984;2022-12-18T09:02:14;16.33;;;9.67;;
9370;SDS011;4725;48.384;8.984;2022-12-18T09:04:41;19.53;;;10.57;;
9370;SDS011;4725;48.384;8.984;2022-12-18T09:07:09;17.47;;;9.90;;
9370;SDS011;4725;48.384;8.984;2022-12-18T09:09:36;17.17;;;9.83;;
9370;SDS011;4725;48.384;8.984;2022-12-18T09:12:04;17.43;;;9.90;;
9370;SDS011;4725;48.384;8.984;2022-12-18T09:14:31;18.73;;;9.83;;
9370;SDS011;4725;48.384;8.984;2022-12-18T09:16:58;20.83;;;10.37;;
9370;SDS011;4725;48.384;8.984;2022-12-18T09:19:25;16.50;;;9.97;;
9370;SDS011;4725;48.384;8.984;2022-12-18T09:21:52;19.80;;;10.87;;
9370;SDS011;4725;48.384;8.984;2022-12-18T09:24:20;17.10;;;9.83;;
9370;SDS011;4725;48.384;8.984;2022-12-18T09:26:47;18.90;;;10.80;;
9370;SDS011;4725;48.384;8.984;2022-12-18T09:29:15;18.87;;;10.83;;
9370;SDS011;4725;48.384;8.984;2022-12-18T09:31:42;21.03;;;11.40;;
9370;SDS011;4725;48.384;8.984;2022-12-18T09:34:09;24.57;;;11.93;;
9370;SDS011;4725;48.384;8.984;2022-12-18T09:36:36;20.17;;;11.40;;
9370;SDS011;4725;48.384;8.984;2022-12-18T09:39:04;24.57;;;14.73;;
9370;SDS011;4725;48.384;8.984;2022-12-18T09:41:42;20.73;;;11.83;;
9370;SDS011;4725;48.384;8.984;2022-12-18T09:44:22;21.70;;;12.63;;
9370;SDS011;4725;48.384;8.984;2022-12-18T09:46:58;18.87;;;11.63;;
9370;SDS011;4725;48.384;8.984;2022-12-18T09:49:34;19.17;;;11.50;;
9370;SDS011;4725;48.384;8.984;2022-12-18T09:52:04;18.13;;;12.40;;
9370;SDS011;4725;48.384;8.984;2022-12-18T09:54:38;21.80;;;12.93;;
9370;SDS011;4725;48.384;8.984;2022-12-18T09:57:10;17.67;;;11.90;;
9370;SDS011;4725;48.384;8.984;2022-12-18T09:59:40;16.33;;;12.63;;
9370;SDS011;4725;48.384;8.984;2022-12-18T10:02:12;21.57;;;13.20;;
9370;SDS011;4725;48.384;8.984;2022-12-18T10:04:42;19.80;;;12.53;;
9370;SDS011;4725;48.384;8.984;2022-12-18T10:07:10;21.03;;;12.43;;
9370;SDS011;4725;48.384;8.984;2022-12-18T10:09:46;19.53;;;11.87;;
9370;SDS011;4725;48.384;8.984;2022-12-18T10:12:25;20.90;;;11.80;;
9370;SDS011;4725;48.384;8.984;2022-12-18T10:14:58;24.60;;;12.27;;
9370;SDS011;4725;48.384;8.984;2022-12-18T10:17:33;21.37;;;13.70;;
9370;SDS011;4725;48.384;8.984;2022-12-18T10:20:10;20.57;;;13.70;;
9370;SDS011;4725;48.384;8.984;2022-12-18T10:22:44;24.93;;;13.17;;
9370;SDS011;4725;48.384;8.984;2022-12-18T10:25:20;22.07;;;12.27;;
9370;SDS011;4725;48.384;8.984;2022-12-18T10:27:53;22.43;;;13.27;;
9370;SDS011;4725;48.384;8.984;2022-12-18T10:30:24;20.17;;;13.30;;
9370;SDS011;4725;48.384;8.984;2022-12-18T10:32:52;19.07;;;13.13;;
9370;SDS011;4725;48.384;8.984;2022-12-18T10:35:20;20.57;;;14.20;;
9370;SDS011;4725;48.384;8.984;2022-12-18T10:38:05;19.60;;;13.43;;
9370;SDS011;4725;48.384;8.984;2022-12-18T10:40:36;22.07;;;14.10;;
9370;SDS011;4725;48.384;8.984;2022-12-18T10:43:19;30.00;;;14.87;;
9370;SDS011;4725;48.384;8.984;2022-12-18T10:45:59;19.30;;;13.67;;
9370;SDS011;4725;48.384;8.984;2022-12-18T10:48:28;22.97;;;14.37;;
9370;SDS011;4725;48.384;8.984;2022-12-18T10:50:56;21.63;;;14.47;;
9370;SDS011;4725;48.384;8.984;2022-12-18T10:53:24;23.53;;;14.37;;
9370;SDS011;4725;48.384;8.984;2022-12-18T10:55:53;19.60;;;13.70;;
9370;SDS011;4725;48.384;8.984;2022-12-18T10:58:27;22.53;;;14.43;;
9370;SDS011;4725;48.384;8.984;2022-12-18T11:01:10;22.47;;;14.20;;
9370;SDS011;4725;48.384;8.984;2022-12-18T11:03:39;20.53;;;13.37;;
9370;SDS011;4725;48.384;8.984;2022-12-18T11:06:09;23.30;;;15.23;;
9370;SDS011;4725;48.384;8.984;2022-12-18T11:08:37;21.67;;;15.03;;
9370;SDS011;4725;48.384;8.984;2022-12-18T11:11:06;21.97;;;14.20;;
9370;SDS011;4725;48.384;8.984;2022-12-18T11:13:42;24.47;;;16.83;;
9370;SDS011;4725;48.384;8.984;2022-12-18T11:16:23;23.90;;;16.97;;
9370;SDS011;4725;48.384;8.984;2022-12-18T11:18:50;23.10;;;16.40;;
9370;SDS011;4725;48.384;8.984;2022-12-18T11:21:18;30.93;;;20.17;;
9370;SDS011;4725;48.384;8.984;2022-12-18T11:23:46;26.50;;;18.63;;
9370;SDS011;4725;48.384;8.984;2022-12-18T11:26:15;22.40;;;17.80;;
9370;SDS011;4725;48.384;8.984;2022-12-18T11:28:45;22.50;;;17.70;;
9370;SDS011;4725;48.384;8.984;2022-12-18T11:31:17;27.33;;;17.80;;
9370;SDS011;4725;48.384;8.984;2022-12-18T11:33:54;24.40;;;16.80;;
9370;SDS011;4725;48.384;8.984;2022-12-18T11:36:28;25.10;;;17.70;;
9370;SDS011;4725;48.384;8.984;2022-12-18T11:38:59;24.10;;;17.97;;
9370;SDS011;4725;48.384;8.984;2022-12-18T11:41:32;25.67;;;17.73;;
9370;SDS011;4725;48.384;8.984;2022-12-18T11:44:26;23.73;;;17.47;;
9370;SDS011;4725;48.384;8.984;2022-12-18T11:46:59;25.10;;;17.83;;
9370;SDS011;4725;48.384;8.984;2022-12-18T11:49:32;28.57;;;18.80;;
9370;SDS011;4725;48.384;8.984;2022-12-18T11:52:00;23.30;;;17.40;;
9370;SDS011;4725;48.384;8.984;2022-12-18T11:54:34;22.97;;;19.07;;
9370;SDS011;4725;48.384;8.984;2022-12-18T11:57:02;23.87;;;18.83;;
9370;SDS011;4725;48.384;8.984;2022-12-18T11:59:39;21.00;;;16.10;;
9370;SDS011;4725;48.384;8.984;2022-12-18T12:02:21;20.77;;;16.03;;
9370;SDS011;4725;48.384;8.984;2022-12-18T12:07:57;24.53;;;17.90;;
9370;SDS011;4725;48.384;8.984;2022-12-18T12:10:33;21.43;;;16.30;;
9370;SDS011;4725;48.384;8.984;2022-12-18T12:13:14;23.07;;;16.20;;
9370;SDS011;4725;48.384;8.984;2022-12-18T12:15:54;21.63;;;15.87;;
9370;SDS011;4725;48.384;8.984;2022-12-18T12:18:34;21.20;;;15.50;;
9370;SDS011;4725;48.384;8.984;2022-12-18T12:21:11;22.10;;;16.47;;
9370;SDS011;4725;48.384;8.984;2022-12-18T12:23:45;21.77;;;15.83;;
9370;SDS011;4725;48.384;8.984;2022-12-18T12:26:21;20.83;;;15.63;;
9370;SDS011;4725;48.384;8.984;2022-12-18T12:28:59;20.47;;;15.77;;
9370;SDS011;4725;48.384;8.984;2022-12-18T12:31:42;21.17;;;16.13;;
9370;SDS011;4725;48.384;8.984;2022-12-18T12:34:24;19.70;;;15.10;;
9370;SDS011;4725;48.384;8.984;2022-12-18T12:37:01;19.63;;;13.87;;
9370;SDS011;4725;48.384;8.984;2022-12-18T12:39:36;20.70;;;14.47;;
9370;SDS011;4725;48.384;8.984;2022-12-18T12:42:08;18.60;;;14.37;;
9370;SDS011;4725;48.384;8.984;2022-12-18T12:44:58;23.07;;;15.70;;
9370;SDS011;4725;48.384;8.984;2022-12-18T12:47:38;19.47;;;14.70;;
9370;SDS011;4725;48.384;8.984;2022-12-18T12:50:11;18.07;;;14.30;;
9370;SDS011;4725;48.384;8.984;2022-12-18T12:52:42;20.00;;;14.93;;
9370;SDS011;4725;48.384;8.984;2022-12-18T12:55:14;20.50;;;15.70;;
9370;SDS011;4725;48.384;8.984;2022-12-18T12:57:45;19.07;;;14.43;;
9370;SDS011;4725;48.384;8.984;2022-12-18T13:00:19;18.07;;;14.17;;
9370;SDS011;4725;48.384;8.984;2022-12-18T13:02:49;20.33;;;14.67;;
9370;SDS011;4725;48.384;8.984;2022-12-18T13:05:22;22.00;;;16.67;;
9370;SDS011;4725;48.384;8.984;2022-12-18T13:07:54;20.57;;;16.27;;
9370;SDS011;4725;48.384;8.984;2022-12-18T13:10:32;22.80;;;17.00;;
9370;SDS011;4725;48.384;8.984;2022-12-18T13:13:01;27.57;;;17.50;;
9370;SDS011;4725;48.384;8.984;2022-12-18T13:15:37;22.30;;;17.23;;
9370;SDS011;4725;48.384;8.984;2022-12-18T13:18:12;27.57;;;20.87;;
9370;SDS011;4725;48.384;8.984;2022-12-18T13:20:42;25.67;;;19.20;;
9370;SDS011;4725;48.384;8.984;2022-12-18T13:23:25;26.73;;;20.07;;
9370;SDS011;4725;48.384;8.984;2022-12-18T13:25:58;24.50;;;17.87;;
9370;SDS011;4725;48.384;8.984;2022-12-18T13:28:49;24.43;;;18.77;;
9370;SDS011;4725;48.384;8.984;2022-12-18T13:34:34;24.23;;;18.63;;
9370;SDS011;4725;48.384;8.984;2022-12-18T13:43:15;22.30;;;16.17;;
9370;SDS011;4725;48.384;8.984;2022-12-18T13:45:50;23.90;;;16.83;;
9370;SDS011;4725;48.384;8.984;2022-12-18T13:48:27;27.03;;;18.83;;
9370;SDS011;4725;48.384;8.984;2022-12-18T13:50:59;25.53;;;18.73;;
9370;SDS011;4725;48.384;8.984;2022-12-18T13:53:30;26.70;;;18.00;;
9370;SDS011;4725;48.384;8.984;2022-12-18T13:56:02;28.63;;;19.17;;
9370;SDS011;4725;48.384;8.984;2022-12-18T13:58:29;28.20;;;18.53;;
9370;SDS011;4725;48.384;8.984;2022-12-18T14:00:57;29.57;;;19.30;;
9370;SDS011;4725;48.384;8.984;2022-12-18T14:03:27;27.77;;;19.37;;
9370;SDS011;4725;48.384;8.984;2022-12-18T14:06:00;26.93;;;18.53;;
9370;SDS011;4725;48.384;8.984;2022-12-18T14:08:37;28.63;;;18.77;;
9370;SDS011;4725;48.384;8.984;2022-12-18T14:11:07;26.87;;;19.63;;
9370;SDS011;4725;48.384;8.984;2022-12-18T14:13:43;26.43;;;19.30;;
9370;SDS011;4725;48.384;8.984;2022-12-18T14:16:12;26.37;;;18.93;;
9370;SDS011;4725;48.384;8.984;2022-12-18T14:18:45;25.43;;;17.80;;
9370;SDS011;4725;48.384;8.984;2022-12-18T14:21:20;26.60;;;18.20;;
9370;SDS011;4725;48.384;8.984;2022-12-18T14:26:40;26.33;;;17.43;;
9370;SDS011;4725;48.384;8.984;2022-12-18T14:29:18;24.90;;;17.10;;
9370;SDS011;4725;48.384;8.984;2022-12-18T14:34:33;23.27;;;15.33;;
9370;SDS011;4725;48.384;8.984;2022-12-18T14:37:05;23.90;;;15.27;;
9370;SDS011;4725;48.384;8.984;2022-12-18T14:39:35;27.30;;;17.33;;
9370;SDS011;4725;48.384;8.984;2022-12-18T14:42:02;25.27;;;15.07;;
9370;SDS011;4725;48.384;8.984;2022-12-18T14:44:30;23.73;;;16.07;;
9370;SDS011;4725;48.384;8.984;2022-12-18T14:46:57;24.03;;;14.80;;
9370;SDS011;4725;48.384;8.984;2022-12-18T14:49:24;27.07;;;16.43;;
9370;SDS011;4725;48.384;8.984;2022-12-18T14:51:56;23.83;;;14.40;;
9370;SDS011;4725;48.384;8.984;2022-12-18T14:54:27;25.50;;;13.87;;
9370;SDS011;4725;48.384;8.984;2022-12-18T14:56:56;28.30;;;16.57;;
9370;SDS011;4725;48.384;8.984;2022-12-18T14:59:28;24.20;;;15.07;;
9370;SDS011;4725;48.384;8.984;2022-12-18T15:01:58;23.87;;;14.77;;
9370;SDS011;4725;48.384;8.984;2022-12-18T15:04:30;27.23;;;17.37;;
9370;SDS011;4725;48.384;8.984;2022-12-18T15:07:05;27.13;;;15.33;;
9370;SDS011;4725;48.384;8.984;2022-12-18T15:09:39;30.37;;;17.87;;
9370;SDS011;4725;48.384;8.984;2022-12-18T15:12:19;25.93;;;15.87;;
9370;SDS011;4725;48.384;8.984;2022-12-18T15:14:51;27.10;;;17.50;;
9370;SDS011;4725;48.384;8.984;2022-12-18T15:17:19;25.40;;;16.33;;
9370;SDS011;4725;48.384;8.984;2022-12-18T15:19:49;31.67;;;20.17;;
9370;SDS011;4725;48.384;8.984;2022-12-18T15:22:25;32.03;;;18.23;;
9370;SDS011;4725;48.384;8.984;2022-12-18T15:24:55;31.40;;;17.97;;
9370;SDS011;4725;48.384;8.984;2022-12-18T15:27:25;25.97;;;17.53;;
9370;SDS011;4725;48.384;8.984;2022-12-18T15:30:03;37.90;;;19.83;;
9370;SDS011;4725;48.384;8.984;2022-12-18T15:32:44;34.00;;;20.47;;